sensor_id;sensor_type;location;lat;lon;timestamp;P1;durP1;ratioP1;P2;durP2;ratioP2
19505;SDS011;9894;50.852;-0.140;2023-08-06T00:00:44;0.75;;;0.50;;
19505;SDS011;9894;50.852;-0.140;2023-08-06T00:03:11;0.20;;;0.20;;
19505;SDS011;9894;50.852;-0.140;2023-08-06T00:05:43;0.30;;;0.30;;
19505;SDS011;9894;50.852;-0.140;2023-08-06T00:08:12;0.22;;;0.22;;
19505;SDS011;9894;50.852;-0.140;2023-08-06T00:10:41;1.30;;;0.93;;
19505;SDS011;9894;50.852;-0.140;2023-08-06T00:13:08;1.73;;;1.17;;
19505;SDS011;9894;50.852;-0.140;2023-08-06T00:15:34;3.30;;;1.65;;
19505;SDS011;9894;50.852;-0.140;2023-08-06T00:18:00;2.00;;;1.10;;
19505;SDS011;9894;50.852;-0.140;2023-08-06T00:20:29;0.20;;;0.20;;
19505;SDS011;9894;50.852;-0.140;2023-08-06T00:22:56;0.20;;;0.20;;
19505;SDS011;9894;50.852;-0.140;2023-08-06T00:25:25;2.22;;;0.95;;
19505;SDS011;9894;50.852;-0.140;2023-08-06T00:27:52;0.35;;;0.35;;
19505;SDS011;9894;50.852;-0.140;2023-08-06T00:30:19;0.20;;;0.20;;
19505;SDS011;9894;50.852;-0.140;2023-08-06T00:32:45;0.10;;;0.10;;
19505;SDS011;9894;50.852;-0.140;2023-08-06T00:35:14;0.10;;;0.10;;
19505;SDS011;9894;50.852;-0.140;2023-08-06T00:37:51;0.20;;;0.20;;
19505;SDS011;9894;50.852;-0.140;2023-08-06T00:40:20;0.65;;;0.45;;
19505;SDS011;9894;50.852;-0.140;2023-08-06T00:42:51;0.32;;;0.32;;
19505;SDS011;9894;50.852;-0.140;2023-08-06T00:45:17;0.10;;;0.10;;
19505;SDS011;9894;50.852;-0.140;2023-08-06T00:47:43;1.70;;;0.60;;
19505;SDS011;9894;50.852;-0.140;2023-08-06T00:50:11;0.17;;;0.17;;
19505;SDS011;9894;50.852;-0.140;2023-08-06T00:52:37;0.57;;;0.40;;
19505;SDS011;9894;50.852;-0.140;2023-08-06T00:55:06;0.28;;;0.28;;
19505;SDS011;9894;50.852;-0.140;2023-08-06T00:57:33;0.40;;;0.40;;
19505;SDS011;9894;50.852;-0.140;2023-08-06T00:59:59;0.10;;;0.10;;
19505;SDS011;9894;50.852;-0.140;2023-08-06T01:02:32;0.10;;;0.10;;
19505;SDS011;9894;50.852;-0.140;2023-08-06T01:05:20;0.40;;;0.40;;
19505;SDS011;9894;50.852;-0.140;2023-08-06T01:10:32;1.00;;;0.68;;
19505;SDS011;9894;50.852;-0.140;2023-08-06T01:15:33;0.20;;;0.20;;
19505;SDS011;9894;50.852;-0.140;2023-08-06T01:18:01;0.10;;;0.10;;
19505;SDS011;9894;50.852;-0.140;2023-08-06T01:20:28;0.20;;;0.20;;
19505;SDS011;9894;50.852;-0.140;2023-08-06T01:22:55;0.30;;;0.30;;
19505;SDS011;9894;50.852;-0.140;2023-08-06T01:25:33;0.10;;;0.10;;
19505;SDS011;9894;50.852;-0.140;2023-08-06T01:28:03;0.30;;;0.30;;
19505;SDS011;9894;50.852;-0.140;2023-08-06T01:30:31;0.10;;;0.10;;
19505;SDS011;9894;50.852;-0.140;2023-08-06T01:33:03;0.43;;;0.43;;
19505;SDS011;9894;50.852;-0.140;2023-08-06T01:35:31;0.43;;;0.43;;
19505;SDS011;9894;50.852;-0.140;2023-08-06T01:38:10;0.20;;;0.20;;
19505;SDS011;9894;50.852;-0.140;2023-08-06T01:40:37;0.10;;;0.10;;
19505;SDS011;9894;50.852;-0.140;2023-08-06T01:43:03;0.22;;;0.22;;
19505;SDS011;9894;50.852;-0.140;2023-08-06T01:45:32;0.28;;;0.28;;
19505;SDS011;9894;50.852;-0.140;2023-08-06T01:47:59;0.20;;;0.20;;
19505;SDS011;9894;50.852;-0.140;2023-08-06T01:50:25;0.20;;;0.20;;
19505;SDS011;9894;50.852;-0.140;2023-08-06T01:52:52;0.28;;;0.28;;
19505;SDS011;9894;50.852;-0.140;2023-08-06T01:55:18;0.15;;;0.15;;
19505;SDS011;9894;50.852;-0.140;2023-08-06T01:57:47;0.20;;;0.20;;
19505;SDS011;9894;50.852;-0.140;2023-08-06T02:00:23;0.45;;;0.40;;
19505;SDS011;9894;50.852;-0.140;2023-08-06T02:02:52;0.10;;;0.10;;
19505;SDS011;9894;50.852;-0.140;2023-08-06T02:05:22;0.20;;;0.20;;
19505;SDS011;9894;50.852;-0.140;2023-08-06T02:07:49;0.30;;;0.30;;
19505;SDS011;9894;50.852;-0.140;2023-08-06T02:10:17;0.28;;;0.20;;
19505;SDS011;9894;50.852;-0.140;2023-08-06T02:12:44;0.20;;;0.20;;
19505;SDS011;9894;50.852;-0.140;2023-08-06T02:15:10;0.25;;;0.25;;
19505;SDS011;9894;50.852;-0.140;2023-08-06T02:17:36;0.47;;;0.47;;
19505;SDS011;9894;50.852;-0.140;2023-08-06T02:20:08;0.20;;;0.20;;
19505;SDS011;9894;50.852;-0.140;2023-08-06T02:22:35;0.20;;;0.20;;
19505;SDS011;9894;50.852;-0.140;2023-08-06T02:25:07;1.02;;;0.25;;
19505;SDS011;9894;50.852;-0.140;2023-08-06T02:27:34;0.28;;;0.28;;
19505;SDS011;9894;50.852;-0.140;2023-08-06T02:30:01;0.13;;;0.13;;
19505;SDS011;9894;50.852;-0.140;2023-08-06T02:32:29;0.10;;;0.10;;
19505;SDS011;9894;50.852;-0.140;2023-08-06T02:35:04;0.10;;;0.10;;
19505;SDS011;9894;50.852;-0.140;2023-08-06T02:37:32;3.42;;;0.85;;
19505;SDS011;9894;50.852;-0.140;2023-08-06T02:40:05;2.85;;;1.00;;
19505;SDS011;9894;50.852;-0.140;2023-08-06T02:42:31;1.65;;;1.00;;
19505;SDS011;9894;50.852;-0.140;2023-08-06T02:44:58;0.13;;;0.13;;
19505;SDS011;9894;50.852;-0.140;2023-08-06T02:47:24;1.17;;;0.47;;
19505;SDS011;9894;50.852;-0.140;2023-08-06T02:49:50;0.10;;;0.10;;
19505;SDS011;9894;50.852;-0.140;2023-08-06T02:52:17;0.10;;;0.10;;
19505;SDS011;9894;50.852;-0.140;2023-08-06T02:54:45;0.10;;;0.10;;
19505;SDS011;9894;50.852;-0.140;2023-08-06T02:57:11;1.75;;;0.85;;
19505;SDS011;9894;50.852;-0.140;2023-08-06T02:59:38;0.10;;;0.10;;
19505;SDS011;9894;50.852;-0.140;2023-08-06T03:02:04;0.17;;;0.17;;
19505;SDS011;9894;50.852;-0.140;2023-08-06T03:04:30;0.20;;;0.20;;
19505;SDS011;9894;50.852;-0.140;2023-08-06T03:06:56;0.10;;;0.10;;
19505;SDS011;9894;50.852;-0.140;2023-08-06T03:09:22;2.35;;;1.00;;
19505;SDS011;9894;50.852;-0.140;2023-08-06T03:11:48;0.20;;;0.20;;
19505;SDS011;9894;50.852;-0.140;2023-08-06T03:14:14;0.30;;;0.30;;
19505;SDS011;9894;50.852;-0.140;2023-08-06T03:16:41;0.68;;;0.68;;
19505;SDS011;9894;50.852;-0.140;2023-08-06T03:19:07;0.30;;;0.30;;
19505;SDS011;9894;50.852;-0.140;2023-08-06T03:21:33;0.50;;;0.50;;
19505;SDS011;9894;50.852;-0.140;2023-08-06T03:23:59;0.20;;;0.20;;
19505;SDS011;9894;50.852;-0.140;2023-08-06T03:26:25;0.30;;;0.30;;
19505;SDS011;9894;50.852;-0.140;2023-08-06T03:28:51;1.75;;;1.02;;
19505;SDS011;9894;50.852;-0.140;2023-08-06T03:31:17;0.40;;;0.40;;
19505;SDS011;9894;50.852;-0.140;2023-08-06T03:33:43;0.63;;;0.43;;
19505;SDS011;9894;50.852;-0.140;2023-08-06T03:36:09;0.40;;;0.40;;
19505;SDS011;9894;50.852;-0.140;2023-08-06T03:38:35;1.55;;;0.57;;
19505;SDS011;9894;50.852;-0.140;2023-08-06T03:41:01;0.20;;;0.20;;
19505;SDS011;9894;50.852;-0.140;2023-08-06T03:43:27;0.20;;;0.20;;
19505;SDS011;9894;50.852;-0.140;2023-08-06T03:45:53;3.08;;;0.73;;
19505;SDS011;9894;50.852;-0.140;2023-08-06T03:48:20;1.00;;;0.90;;
19505;SDS011;9894;50.852;-0.140;2023-08-06T03:50:46;0.40;;;0.40;;
19505;SDS011;9894;50.852;-0.140;2023-08-06T03:53:12;0.10;;;0.10;;
19505;SDS011;9894;50.852;-0.140;2023-08-06T03:55:38;0.50;;;0.50;;
19505;SDS011;9894;50.852;-0.140;2023-08-06T03:58:04;3.10;;;0.38;;
19505;SDS011;9894;50.852;-0.140;2023-08-06T04:00:30;0.25;;;0.22;;
19505;SDS011;9894;50.852;-0.140;2023-08-06T04:02:56;0.60;;;0.43;;
19505;SDS011;9894;50.852;-0.140;2023-08-06T04:05:22;0.20;;;0.20;;
19505;SDS011;9894;50.852;-0.140;2023-08-06T04:07:48;1.65;;;0.80;;
19505;SDS011;9894;50.852;-0.140;2023-08-06T04:10:14;0.75;;;0.65;;
19505;SDS011;9894;50.852;-0.140;2023-08-06T04:12:40;0.45;;;0.40;;
19505;SDS011;9894;50.852;-0.140;2023-08-06T04:15:06;0.25;;;0.25;;
19505;SDS011;9894;50.852;-0.140;2023-08-06T04:17:33;0.20;;;0.20;;
19505;SDS011;9894;50.852;-0.140;2023-08-06T04:19:59;1.20;;;0.73;;
19505;SDS011;9894;50.852;-0.140;2023-08-06T04:22:25;0.75;;;0.45;;
19505;SDS011;9894;50.852;-0.140;2023-08-06T04:24:51;0.15;;;0.15;;
19505;SDS011;9894;50.852;-0.140;2023-08-06T04:27:18;0.20;;;0.20;;
19505;SDS011;9894;50.852;-0.140;2023-08-06T04:29:45;0.20;;;0.20;;
19505;SDS011;9894;50.852;-0.140;2023-08-06T04:32:11;0.52;;;0.40;;
19505;SDS011;9894;50.852;-0.140;2023-08-06T04:34:38;1.00;;;0.90;;
19505;SDS011;9894;50.852;-0.140;2023-08-06T04:37:04;0.35;;;0.35;;
19505;SDS011;9894;50.852;-0.140;2023-08-06T04:39:30;0.20;;;0.20;;
19505;SDS011;9894;50.852;-0.140;2023-08-06T04:41:56;0.47;;;0.32;;
19505;SDS011;9894;50.852;-0.140;2023-08-06T04:44:22;0.20;;;0.20;;
19505;SDS011;9894;50.852;-0.140;2023-08-06T04:46:48;0.10;;;0.10;;
19505;SDS011;9894;50.852;-0.140;2023-08-06T04:49:15;0.20;;;0.20;;
19505;SDS011;9894;50.852;-0.140;2023-08-06T04:51:41;0.20;;;0.20;;
19505;SDS011;9894;50.852;-0.140;2023-08-06T04:54:07;0.25;;;0.25;;
19505;SDS011;9894;50.852;-0.140;2023-08-06T04:56:33;1.35;;;1.00;;
19505;SDS011;9894;50.852;-0.140;2023-08-06T04:58:59;0.10;;;0.10;;
19505;SDS011;9894;50.852;-0.140;2023-08-06T05:01:25;0.20;;;0.20;;
19505;SDS011;9894;50.852;-0.140;2023-08-06T05:03:51;0.20;;;0.20;;
19505;SDS011;9894;50.852;-0.140;2023-08-06T05:06:17;4.00;;;1.00;;
19505;SDS011;9894;50.852;-0.140;2023-08-06T05:08:43;0.20;;;0.20;;
19505;SDS011;9894;50.852;-0.140;2023-08-06T05:11:10;1.58;;;1.48;;
19505;SDS011;9894;50.852;-0.140;2023-08-06T05:13:36;0.10;;;0.10;;
19505;SDS011;9894;50.852;-0.140;2023-08-06T05:16:02;0.30;;;0.30;;
19505;SDS011;9894;50.852;-0.140;2023-08-06T05:18:28;0.20;;;0.20;;
19505;SDS011;9894;50.852;-0.140;2023-08-06T05:20:55;0.20;;;0.20;;
19505;SDS011;9894;50.852;-0.140;2023-08-06T05:23:22;1.00;;;0.65;;
19505;SDS011;9894;50.852;-0.140;2023-08-06T05:25:48;0.20;;;0.20;;
19505;SDS011;9894;50.852;-0.140;2023-08-06T05:28:14;0.20;;;0.20;;
19505;SDS011;9894;50.852;-0.140;2023-08-06T05:30:40;0.20;;;0.20;;
19505;SDS011;9894;50.852;-0.140;2023-08-06T05:33:07;16.30;;;0.95;;
19505;SDS011;9894;50.852;-0.140;2023-08-06T05:35:33;0.20;;;0.20;;
19505;SDS011;9894;50.852;-0.140;2023-08-06T05:37:59;0.30;;;0.30;;
19505;SDS011;9894;50.852;-0.140;2023-08-06T05:40:25;0.65;;;0.65;;
19505;SDS011;9894;50.852;-0.140;2023-08-06T05:42:53;0.20;;;0.20;;
19505;SDS011;9894;50.852;-0.140;2023-08-06T05:45:19;2.17;;;0.55;;
19505;SDS011;9894;50.852;-0.140;2023-08-06T05:47:45;0.30;;;0.30;;
19505;SDS011;9894;50.852;-0.140;2023-08-06T05:50:13;0.10;;;0.10;;
19505;SDS011;9894;50.852;-0.140;2023-08-06T05:52:39;0.17;;;0.17;;
19505;SDS011;9894;50.852;-0.140;2023-08-06T05:55:06;0.65;;;0.50;;
19505;SDS011;9894;50.852;-0.140;2023-08-06T05:57:32;0.10;;;0.10;;
19505;SDS011;9894;50.852;-0.140;2023-08-06T05:59:58;0.32;;;0.32;;
19505;SDS011;9894;50.852;-0.140;2023-08-06T06:02:24;0.10;;;0.10;;
19505;SDS011;9894;50.852;-0.140;2023-08-06T06:04:50;0.40;;;0.40;;
19505;SDS011;9894;50.852;-0.140;2023-08-06T06:07:16;0.20;;;0.20;;
19505;SDS011;9894;50.852;-0.140;2023-08-06T06:09:42;0.20;;;0.20;;
19505;SDS011;9894;50.852;-0.140;2023-08-06T06:12:08;1.45;;;0.68;;
19505;SDS011;9894;50.852;-0.140;2023-08-06T06:14:34;0.20;;;0.20;;
19505;SDS011;9894;50.852;-0.140;2023-08-06T06:17:00;0.85;;;0.60;;
19505;SDS011;9894;50.852;-0.140;2023-08-06T06:19:26;0.77;;;0.77;;
19505;SDS011;9894;50.852;-0.140;2023-08-06T06:21:53;0.30;;;0.30;;
19505;SDS011;9894;50.852;-0.140;2023-08-06T06:24:19;0.30;;;0.30;;
19505;SDS011;9894;50.852;-0.140;2023-08-06T06:26:45;1.10;;;0.93;;
19505;SDS011;9894;50.852;-0.140;2023-08-06T06:29:11;0.20;;;0.20;;
19505;SDS011;9894;50.852;-0.140;2023-08-06T06:31:37;0.57;;;0.28;;
19505;SDS011;9894;50.852;-0.140;2023-08-06T06:34:03;0.38;;;0.38;;
19505;SDS011;9894;50.852;-0.140;2023-08-06T06:36:29;1.33;;;0.73;;
19505;SDS011;9894;50.852;-0.140;2023-08-06T06:38:55;0.10;;;0.10;;
19505;SDS011;9894;50.852;-0.140;2023-08-06T06:41:22;0.10;;;0.10;;
19505;SDS011;9894;50.852;-0.140;2023-08-06T06:43:49;0.35;;;0.35;;
19505;SDS011;9894;50.852;-0.140;2023-08-06T06:46:15;0.40;;;0.40;;
19505;SDS011;9894;50.852;-0.140;2023-08-06T06:48:41;0.20;;;0.20;;
19505;SDS011;9894;50.852;-0.140;2023-08-06T06:51:07;2.72;;;1.30;;
19505;SDS011;9894;50.852;-0.140;2023-08-06T06:53:33;0.10;;;0.10;;
19505;SDS011;9894;50.852;-0.140;2023-08-06T06:56:02;2.88;;;1.27;;
19505;SDS011;9894;50.852;-0.140;2023-08-06T06:58:29;0.20;;;0.20;;
19505;SDS011;9894;50.852;-0.140;2023-08-06T07:00:56;1.23;;;1.00;;
19505;SDS011;9894;50.852;-0.140;2023-08-06T07:03:22;4.25;;;1.38;;
19505;SDS011;9894;50.852;-0.140;2023-08-06T07:05:49;0.40;;;0.40;;
19505;SDS011;9894;50.852;-0.140;2023-08-06T07:08:15;0.45;;;0.45;;
19505;SDS011;9894;50.852;-0.140;2023-08-06T07:10:41;0.20;;;0.20;;
19505;SDS011;9894;50.852;-0.140;2023-08-06T07:13:08;1.52;;;1.42;;
19505;SDS011;9894;50.852;-0.140;2023-08-06T07:15:34;0.55;;;0.43;;
19505;SDS011;9894;50.852;-0.140;2023-08-06T07:18:01;0.43;;;0.43;;
19505;SDS011;9894;50.852;-0.140;2023-08-06T07:20:27;0.30;;;0.30;;
19505;SDS011;9894;50.852;-0.140;2023-08-06T07:22:56;0.20;;;0.20;;
19505;SDS011;9894;50.852;-0.140;2023-08-06T07:25:23;0.32;;;0.32;;
19505;SDS011;9894;50.852;-0.140;2023-08-06T07:27:49;0.30;;;0.30;;
19505;SDS011;9894;50.852;-0.140;2023-08-06T07:30:15;1.40;;;0.60;;
19505;SDS011;9894;50.852;-0.140;2023-08-06T07:32:41;0.22;;;0.22;;
19505;SDS011;9894;50.852;-0.140;2023-08-06T07:35:08;0.20;;;0.20;;
19505;SDS011;9894;50.852;-0.140;2023-08-06T07:37:38;0.20;;;0.20;;
19505;SDS011;9894;50.852;-0.140;2023-08-06T07:40:04;1.83;;;1.67;;
19505;SDS011;9894;50.852;-0.140;2023-08-06T07:42:30;0.30;;;0.30;;
19505;SDS011;9894;50.852;-0.140;2023-08-06T07:44:58;0.20;;;0.20;;
19505;SDS011;9894;50.852;-0.140;2023-08-06T07:47:24;1.40;;;0.95;;
19505;SDS011;9894;50.852;-0.140;2023-08-06T07:49:50;0.32;;;0.32;;
19505;SDS011;9894;50.852;-0.140;2023-08-06T07:52:16;0.52;;;0.52;;
19505;SDS011;9894;50.852;-0.140;2023-08-06T07:54:43;0.65;;;0.50;;
19505;SDS011;9894;50.852;-0.140;2023-08-06T07:57:09;5.72;;;1.38;;
19505;SDS011;9894;50.852;-0.140;2023-08-06T07:59:35;0.30;;;0.30;;
19505;SDS011;9894;50.852;-0.140;2023-08-06T08:02:01;0.80;;;0.75;;
19505;SDS011;9894;50.852;-0.140;2023-08-06T08:04:27;0.30;;;0.30;;
19505;SDS011;9894;50.852;-0.140;2023-08-06T08:06:53;0.20;;;0.20;;
19505;SDS011;9894;50.852;-0.140;2023-08-06T08:09:19;4.55;;;1.45;;
19505;SDS011;9894;50.852;-0.140;2023-08-06T08:11:45;0.10;;;0.10;;
19505;SDS011;9894;50.852;-0.140;2023-08-06T08:14:12;1.80;;;1.25;;
19505;SDS011;9894;50.852;-0.140;2023-08-06T08:16:38;0.40;;;0.40;;
19505;SDS011;9894;50.852;-0.140;2023-08-06T08:19:04;1.00;;;0.40;;
19505;SDS011;9894;50.852;-0.140;2023-08-06T08:21:31;0.50;;;0.50;;
19505;SDS011;9894;50.852;-0.140;2023-08-06T08:23:58;3.47;;;2.00;;
19505;SDS011;9894;50.852;-0.140;2023-08-06T08:26:24;0.20;;;0.20;;
19505;SDS011;9894;50.852;-0.140;2023-08-06T08:28:52;0.30;;;0.30;;
19505;SDS011;9894;50.852;-0.140;2023-08-06T08:31:18;0.20;;;0.20;;
19505;SDS011;9894;50.852;-0.140;2023-08-06T08:33:45;0.55;;;0.55;;
19505;SDS011;9894;50.852;-0.140;2023-08-06T08:36:11;0.38;;;0.38;;
19505;SDS011;9894;50.852;-0.140;2023-08-06T08:38:37;0.22;;;0.22;;
19505;SDS011;9894;50.852;-0.140;2023-08-06T08:41:03;1.52;;;0.95;;
19505;SDS011;9894;50.852;-0.140;2023-08-06T08:43:29;5.20;;;0.80;;
19505;SDS011;9894;50.852;-0.140;2023-08-06T08:45:56;2.35;;;1.17;;
19505;SDS011;9894;50.852;-0.140;2023-08-06T08:48:25;0.50;;;0.50;;
19505;SDS011;9894;50.852;-0.140;2023-08-06T08:50:55;0.57;;;0.57;;
19505;SDS011;9894;50.852;-0.140;2023-08-06T08:53:21;2.60;;;1.63;;
19505;SDS011;9894;50.852;-0.140;2023-08-06T08:55:48;1.88;;;0.73;;
19505;SDS011;9894;50.852;-0.140;2023-08-06T08:58:15;0.50;;;0.50;;
19505;SDS011;9894;50.852;-0.140;2023-08-06T09:00:45;3.63;;;0.65;;
19505;SDS011;9894;50.852;-0.140;2023-08-06T09:03:13;0.50;;;0.50;;
19505;SDS011;9894;50.852;-0.140;2023-08-06T09:05:41;1.17;;;1.15;;
19505;SDS011;9894;50.852;-0.140;2023-08-06T09:08:09;0.30;;;0.30;;
19505;SDS011;9894;50.852;-0.140;2023-08-06T09:10:37;0.38;;;0.38;;
19505;SDS011;9894;50.852;-0.140;2023-08-06T09:13:04;0.40;;;0.40;;
19505;SDS011;9894;50.852;-0.140;2023-08-06T09:15:31;0.20;;;0.20;;
19505;SDS011;9894;50.852;-0.140;2023-08-06T09:17:58;0.50;;;0.50;;
19505;SDS011;9894;50.852;-0.140;2023-08-06T09:20:24;0.50;;;0.50;;
19505;SDS011;9894;50.852;-0.140;2023-08-06T09:22:54;0.38;;;0.38;;
19505;SDS011;9894;50.852;-0.140;2023-08-06T09:25:23;0.80;;;0.70;;
19505;SDS011;9894;50.852;-0.140;2023-08-06T09:27:50;2.72;;;1.63;;
19505;SDS011;9894;50.852;-0.140;2023-08-06T09:30:32;3.83;;;1.65;;
19505;SDS011;9894;50.852;-0.140;2023-08-06T09:32:58;1.75;;;1.20;;
19505;SDS011;9894;50.852;-0.140;2023-08-06T09:35:25;0.40;;;0.40;;
19505;SDS011;9894;50.852;-0.140;2023-08-06T09:37:53;0.57;;;0.57;;
19505;SDS011;9894;50.852;-0.140;2023-08-06T09:40:26;0.50;;;0.50;;
19505;SDS011;9894;50.852;-0.140;2023-08-06T09:42:53;1.20;;;0.85;;
19505;SDS011;9894;50.852;-0.140;2023-08-06T09:45:20;0.65;;;0.65;;
19505;SDS011;9894;50.852;-0.140;2023-08-06T09:47:47;0.82;;;0.82;;
19505;SDS011;9894;50.852;-0.140;2023-08-06T09:50:19;1.27;;;1.00;;
19505;SDS011;9894;50.852;-0.140;2023-08-06T09:52:46;0.70;;;0.70;;
19505;SDS011;9894;50.852;-0.140;2023-08-06T09:55:15;0.93;;;0.93;;
19505;SDS011;9894;50.852;-0.140;2023-08-06T09:57:42;2.47;;;1.27;;
19505;SDS011;9894;50.852;-0.140;2023-08-06T10:00:08;0.90;;;0.90;;
19505;SDS011;9894;50.852;-0.140;2023-08-06T10:02:39;1.05;;;1.05;;
19505;SDS011;9894;50.852;-0.140;2023-08-06T10:05:09;3.13;;;1.75;;
19505;SDS011;9894;50.852;-0.140;2023-08-06T10:07:35;1.48;;;1.38;;
19505;SDS011;9894;50.852;-0.140;2023-08-06T10:10:02;1.20;;;1.20;;
19505;SDS011;9894;50.852;-0.140;2023-08-06T10:12:31;0.90;;;0.90;;
19505;SDS011;9894;50.852;-0.140;2023-08-06T10:14:59;2.25;;;1.35;;
19505;SDS011;9894;50.852;-0.140;2023-08-06T10:17:25;1.30;;;1.20;;
19505;SDS011;9894;50.852;-0.140;2023-08-06T10:19:52;1.40;;;1.40;;
19505;SDS011;9894;50.852;-0.140;2023-08-06T10:22:21;1.90;;;1.80;;
19505;SDS011;9894;50.852;-0.140;2023-08-06T10:27:19;1.60;;;1.60;;
19505;SDS011;9894;50.852;-0.140;2023-08-06T10:29:45;2.33;;;2.13;;
19505;SDS011;9894;50.852;-0.140;2023-08-06T10:32:12;2.15;;;2.05;;
19505;SDS011;9894;50.852;-0.140;2023-08-06T10:34:58;2.90;;;2.80;;
19505;SDS011;9894;50.852;-0.140;2023-08-06T10:37:35;2.40;;;2.30;;
19505;SDS011;9894;50.852;-0.140;2023-08-06T10:40:02;3.20;;;3.00;;
19505;SDS011;9894;50.852;-0.140;2023-08-06T10:42:29;3.40;;;3.20;;
19505;SDS011;9894;50.852;-0.140;2023-08-06T10:45:14;5.10;;;4.78;;
19505;SDS011;9894;50.852;-0.140;2023-08-06T10:47:41;7.20;;;6.70;;
19505;SDS011;9894;50.852;-0.140;2023-08-06T10:50:10;9.15;;;8.55;;
19505;SDS011;9894;50.852;-0.140;2023-08-06T10:52:36;11.20;;;10.40;;
19505;SDS011;9894;50.852;-0.140;2023-08-06T10:55:02;11.68;;;10.88;;
19505;SDS011;9894;50.852;-0.140;2023-08-06T10:57:29;11.52;;;10.50;;
19505;SDS011;9894;50.852;-0.140;2023-08-06T10:59:55;11.27;;;10.48;;
19505;SDS011;9894;50.852;-0.140;2023-08-06T11:02:21;11.82;;;10.82;;
19505;SDS011;9894;50.852;-0.140;2023-08-06T11:04:48;17.25;;;10.38;;
19505;SDS011;9894;50.852;-0.140;2023-08-06T11:07:14;12.90;;;12.00;;
19505;SDS011;9894;50.852;-0.140;2023-08-06T11:09:40;15.43;;;14.05;;
19505;SDS011;9894;50.852;-0.140;2023-08-06T11:12:09;15.55;;;14.45;;
19505;SDS011;9894;50.852;-0.140;2023-08-06T11:14:35;16.23;;;15.02;;
19505;SDS011;9894;50.852;-0.140;2023-08-06T11:17:01;15.30;;;14.30;;
19505;SDS011;9894;50.852;-0.140;2023-08-06T11:19:28;15.27;;;14.25;;
19505;SDS011;9894;50.852;-0.140;2023-08-06T11:21:54;14.60;;;13.50;;
19505;SDS011;9894;50.852;-0.140;2023-08-06T11:24:20;17.20;;;16.00;;
19505;SDS011;9894;50.852;-0.140;2023-08-06T11:26:47;18.10;;;16.80;;
19505;SDS011;9894;50.852;-0.140;2023-08-06T11:29:14;17.77;;;16.58;;
19505;SDS011;9894;50.852;-0.140;2023-08-06T11:31:40;19.58;;;18.27;;
19505;SDS011;9894;50.852;-0.140;2023-08-06T11:34:07;15.90;;;14.80;;
19505;SDS011;9894;50.852;-0.140;2023-08-06T11:36:34;16.10;;;15.00;;
19505;SDS011;9894;50.852;-0.140;2023-08-06T11:39:03;15.10;;;14.07;;
19505;SDS011;9894;50.852;-0.140;2023-08-06T11:41:30;14.88;;;13.88;;
19505;SDS011;9894;50.852;-0.140;2023-08-06T11:43:57;13.60;;;12.60;;
19505;SDS011;9894;50.852;-0.140;2023-08-06T11:46:23;11.88;;;11.07;;
19505;SDS011;9894;50.852;-0.140;2023-08-06T11:48:50;15.13;;;14.13;;
19505;SDS011;9894;50.852;-0.140;2023-08-06T11:51:17;11.98;;;11.18;;
19505;SDS011;9894;50.852;-0.140;2023-08-06T11:53:48;13.20;;;12.10;;
19505;SDS011;9894;50.852;-0.140;2023-08-06T11:56:14;12.05;;;11.25;;
19505;SDS011;9894;50.852;-0.140;2023-08-06T11:58:41;12.50;;;11.70;;
19505;SDS011;9894;50.852;-0.140;2023-08-06T12:01:07;13.90;;;12.90;;
19505;SDS011;9894;50.852;-0.140;2023-08-06T12:03:38;13.18;;;12.25;;
19505;SDS011;9894;50.852;-0.140;2023-08-06T12:06:05;13.60;;;12.70;;
19505;SDS011;9894;50.852;-0.140;2023-08-06T12:08:32;12.82;;;11.93;;
19505;SDS011;9894;50.852;-0.140;2023-08-06T12:10:58;12.48;;;11.65;;
19505;SDS011;9894;50.852;-0.140;2023-08-06T12:13:25;13.82;;;12.93;;
19505;SDS011;9894;50.852;-0.140;2023-08-06T12:15:51;10.85;;;10.15;;
19505;SDS011;9894;50.852;-0.140;2023-08-06T12:18:18;11.57;;;10.77;;
19505;SDS011;9894;50.852;-0.140;2023-08-06T12:20:45;10.77;;;9.98;;
19505;SDS011;9894;50.852;-0.140;2023-08-06T12:23:11;10.40;;;9.70;;
19505;SDS011;9894;50.852;-0.140;2023-08-06T12:25:40;9.93;;;9.23;;
19505;SDS011;9894;50.852;-0.140;2023-08-06T12:28:06;9.48;;;8.88;;
19505;SDS011;9894;50.852;-0.140;2023-08-06T12:30:34;11.60;;;10.80;;
19505;SDS011;9894;50.852;-0.140;2023-08-06T12:33:00;8.73;;;8.13;;
19505;SDS011;9894;50.852;-0.140;2023-08-06T12:35:26;9.45;;;8.75;;
19505;SDS011;9894;50.852;-0.140;2023-08-06T12:37:52;8.80;;;8.20;;
19505;SDS011;9894;50.852;-0.140;2023-08-06T12:40:20;9.13;;;8.52;;
19505;SDS011;9894;50.852;-0.140;2023-08-06T12:42:46;9.25;;;8.65;;
19505;SDS011;9894;50.852;-0.140;2023-08-06T12:45:13;10.02;;;9.32;;
19505;SDS011;9894;50.852;-0.140;2023-08-06T12:47:40;9.40;;;8.80;;
19505;SDS011;9894;50.852;-0.140;2023-08-06T12:50:06;8.50;;;7.90;;
19505;SDS011;9894;50.852;-0.140;2023-08-06T12:52:32;8.65;;;8.05;;
19505;SDS011;9894;50.852;-0.140;2023-08-06T12:54:58;9.27;;;8.60;;
19505;SDS011;9894;50.852;-0.140;2023-08-06T12:57:24;9.20;;;8.60;;
19505;SDS011;9894;50.852;-0.140;2023-08-06T12:59:52;10.00;;;9.30;;
19505;SDS011;9894;50.852;-0.140;2023-08-06T13:02:18;11.00;;;10.20;;
19505;SDS011;9894;50.852;-0.140;2023-08-06T13:04:45;8.80;;;8.20;;
19505;SDS011;9894;50.852;-0.140;2023-08-06T13:07:12;9.23;;;8.63;;
19505;SDS011;9894;50.852;-0.140;2023-08-06T13:09:38;9.93;;;9.23;;
19505;SDS011;9894;50.852;-0.140;2023-08-06T13:12:04;8.88;;;8.27;;
19505;SDS011;9894;50.852;-0.140;2023-08-06T13:14:31;8.60;;;8.00;;
19505;SDS011;9894;50.852;-0.140;2023-08-06T13:16:57;8.80;;;8.20;;
19505;SDS011;9894;50.852;-0.140;2023-08-06T13:19:23;8.95;;;8.35;;
19505;SDS011;9894;50.852;-0.140;2023-08-06T13:24:15;9.00;;;8.40;;
19505;SDS011;9894;50.852;-0.140;2023-08-06T13:26:42;8.20;;;7.70;;
19505;SDS011;9894;50.852;-0.140;2023-08-06T13:29:08;8.80;;;8.20;;
19505;SDS011;9894;50.852;-0.140;2023-08-06T13:31:34;8.80;;;8.20;;
19505;SDS011;9894;50.852;-0.140;2023-08-06T13:34:00;7.70;;;7.20;;
19505;SDS011;9894;50.852;-0.140;2023-08-06T13:36:26;9.10;;;8.50;;
19505;SDS011;9894;50.852;-0.140;2023-08-06T13:38:53;8.48;;;7.88;;
19505;SDS011;9894;50.852;-0.140;2023-08-06T13:41:19;8.73;;;8.13;;
19505;SDS011;9894;50.852;-0.140;2023-08-06T13:43:45;16.15;;;7.57;;
19505;SDS011;9894;50.852;-0.140;2023-08-06T13:46:12;7.80;;;7.30;;
19505;SDS011;9894;50.852;-0.140;2023-08-06T13:48:41;7.88;;;7.38;;
19505;SDS011;9894;50.852;-0.140;2023-08-06T13:51:13;8.80;;;8.20;;
19505;SDS011;9894;50.852;-0.140;2023-08-06T13:53:39;7.90;;;7.40;;
19505;SDS011;9894;50.852;-0.140;2023-08-06T13:56:06;8.43;;;7.82;;
19505;SDS011;9894;50.852;-0.140;2023-08-06T13:58:32;7.90;;;7.40;;
19505;SDS011;9894;50.852;-0.140;2023-08-06T14:00:58;8.90;;;8.20;;
19505;SDS011;9894;50.852;-0.140;2023-08-06T14:03:25;6.90;;;6.50;;
19505;SDS011;9894;50.852;-0.140;2023-08-06T14:05:51;7.53;;;7.03;;
19505;SDS011;9894;50.852;-0.140;2023-08-06T14:08:18;8.10;;;7.60;;
19505;SDS011;9894;50.852;-0.140;2023-08-06T14:10:44;7.95;;;7.45;;
19505;SDS011;9894;50.852;-0.140;2023-08-06T14:13:10;7.53;;;7.03;;
19505;SDS011;9894;50.852;-0.140;2023-08-06T14:15:37;7.43;;;6.93;;
19505;SDS011;9894;50.852;-0.140;2023-08-06T14:18:06;7.90;;;7.40;;
19505;SDS011;9894;50.852;-0.140;2023-08-06T14:20:35;7.68;;;7.18;;
19505;SDS011;9894;50.852;-0.140;2023-08-06T14:23:01;7.63;;;7.13;;
19505;SDS011;9894;50.852;-0.140;2023-08-06T14:25:28;7.60;;;7.10;;
19505;SDS011;9894;50.852;-0.140;2023-08-06T14:27:54;7.68;;;7.18;;
19505;SDS011;9894;50.852;-0.140;2023-08-06T14:30:20;8.00;;;7.50;;
19505;SDS011;9894;50.852;-0.140;2023-08-06T14:32:46;7.50;;;7.00;;
19505;SDS011;9894;50.852;-0.140;2023-08-06T14:35:12;7.60;;;7.10;;
19505;SDS011;9894;50.852;-0.140;2023-08-06T14:37:39;7.20;;;6.70;;
19505;SDS011;9894;50.852;-0.140;2023-08-06T14:40:06;7.60;;;7.10;;
19505;SDS011;9894;50.852;-0.140;2023-08-06T14:42:32;7.20;;;6.70;;
19505;SDS011;9894;50.852;-0.140;2023-08-06T14:44:58;6.80;;;6.40;;
19505;SDS011;9894;50.852;-0.140;2023-08-06T14:47:25;7.85;;;7.35;;
19505;SDS011;9894;50.852;-0.140;2023-08-06T14:49:51;7.55;;;7.05;;
19505;SDS011;9894;50.852;-0.140;2023-08-06T14:52:17;7.28;;;6.78;;
19505;SDS011;9894;50.852;-0.140;2023-08-06T14:54:43;7.97;;;7.43;;